Wind From: 13-12-2017 10:08 Until: 14-12-2017 06:00 warning for: Wind Level: Yellow info button

Although rather usual in this region, locally or potentially dangerous phenomena are expected. (such as local winds, summer thunderstorms, rising streams or high waves) Be aware and pay attention to the latest weather updates, especially if you carry out activities exposed to weather or close to a stream or shoreline. 


Meteo18 Weather Cam more information Meteo18 Weather Cam


Thunder radar more information blitzortung!


Rain radar more information rain snow radar


Visit our other weather sites:

Template documentation
and downloads

And another site



Weather Underground History page Text

Daily Summary for April 15, 2017 Units:  Both    English   Metric
« Previous Day
Next Day »
Daily Weekly Monthly Yearly Custom
  High: Low: Average:
Temperature: 56.7 °F /  13.7 °C 45 °F /  7.2 °C 51.1 °F /  10.6 °C
Dew Point: 46.9 °F /  8.3 °C 40.5 °F /  4.7 °C 44.6 °F /  7 °C
Humidity: 90 % 64 % 79 %
Wind Speed: 10 mph /  16.1 km/h - 2.4 mph /  3.8 km/h
Wind Gust: 16 mph /  25.7 km/h - -
Wind:- - West
Pressure: 30.2 in /  1023.6 hPa 30.1 in /  1018.8 hPa -
Precipitation: 0 in /  0.0 mm    
Historical Graphs
 
 
Tabular Data for April 15, 2017
Time Temperature Dew Point Pressure Wind Wind Speed Wind Gust Humidity Rainfall Rate (Hourly)
00:02 51.4 °F /  10.8 °C 42.8 °F /  6.0 °C 30.1 in /  1018.8 hPa Calm   3 mph /  4.8 km/h 72 % 0 in /  0.0 mm
00:07 51.3 °F /  10.7 °C 42.6 °F /  5.9 °C 30.1 in /  1018.8 hPa Calm   2 mph /  3.2 km/h 72 % 0 in /  0.0 mm
00:12 51.3 °F /  10.7 °C 42.6 °F /  5.9 °C 30.1 in /  1018.8 hPa NW 2 mph /  3.2 km/h 2 mph /  3.2 km/h 72 % 0 in /  0.0 mm
00:17 51.3 °F /  10.7 °C 42.6 °F /  5.9 °C 30.1 in /  1018.8 hPa NW 2 mph /  3.2 km/h 2 mph /  3.2 km/h 72 % 0 in /  0.0 mm
00:22 51.3 °F /  10.7 °C 42.6 °F /  5.9 °C 30.1 in /  1018.8 hPa NW 2 mph /  3.2 km/h 2 mph /  3.2 km/h 72 % 0 in /  0.0 mm
00:32 51.3 °F /  10.7 °C 42.6 °F /  5.9 °C 30.1 in /  1018.8 hPa NW 1 mph /  1.6 km/h 2 mph /  3.2 km/h 72 % 0 in /  0.0 mm
00:37 51.1 °F /  10.6 °C 42.4 °F /  5.8 °C 30.1 in /  1019.2 hPa NW 1 mph /  1.6 km/h 2 mph /  3.2 km/h 72 % 0 in /  0.0 mm
00:42 51.3 °F /  10.7 °C 42.6 °F /  5.9 °C 30.1 in /  1018.8 hPa NW 1 mph /  1.6 km/h 2 mph /  3.2 km/h 72 % 0 in /  0.0 mm
00:52 51.1 °F /  10.6 °C 42.4 °F /  5.8 °C 30.1 in /  1018.8 hPa NNW 1 mph /  1.6 km/h 2 mph /  3.2 km/h 72 % 0 in /  0.0 mm
00:57 50.9 °F /  10.5 °C 42.3 °F /  5.7 °C 30.1 in /  1018.8 hPa NNW 1 mph /  1.6 km/h 2 mph /  3.2 km/h 72 % 0 in /  0.0 mm
01:02 50.5 °F /  10.3 °C 41.9 °F /  5.5 °C 30.1 in /  1018.8 hPa Calm   2 mph /  3.2 km/h 72 % 0 in /  0.0 mm
01:12 48.7 °F /  9.3 °C 41.9 °F /  5.5 °C 30.1 in /  1018.8 hPa West 1 mph /  1.6 km/h 2 mph /  3.2 km/h 77 % 0 in /  0.0 mm
01:17 48.6 °F /  9.2 °C 42.1 °F /  5.6 °C 30.1 in /  1019.2 hPa Calm   2 mph /  3.2 km/h 78 % 0 in /  0.0 mm
01:22 48.6 °F /  9.2 °C 42.1 °F /  5.6 °C 30.1 in /  1019.2 hPa Calm   1 mph /  1.6 km/h 78 % 0 in /  0.0 mm
01:32 48 °F /  8.9 °C 41.9 °F /  5.5 °C 30.1 in /  1019.2 hPa Calm   1 mph /  1.6 km/h 79 % 0 in /  0.0 mm
01:37 47.8 °F /  8.8 °C 41.9 °F /  5.5 °C 30.1 in /  1019.2 hPa WNW 1 mph /  1.6 km/h 1 mph /  1.6 km/h 80 % 0 in /  0.0 mm
01:42 47.8 °F /  8.8 °C 41.9 °F /  5.5 °C 30.1 in /  1019.2 hPa Calm   1 mph /  1.6 km/h 80 % 0 in /  0.0 mm
01:52 47.5 °F /  8.6 °C 41.9 °F /  5.5 °C 30.1 in /  1019.2 hPa Calm   1 mph /  1.6 km/h 81 % 0 in /  0.0 mm
01:57 48 °F /  8.9 °C 42.1 °F /  5.6 °C 30.1 in /  1019.2 hPa Calm   1 mph /  1.6 km/h 80 % 0 in /  0.0 mm
02:02 48 °F /  8.9 °C 42.1 °F /  5.6 °C 30.1 in /  1019.2 hPa Calm   1 mph /  1.6 km/h 80 % 0 in /  0.0 mm
02:07 47.8 °F /  8.8 °C 41.9 °F /  5.5 °C 30.1 in /  1019.2 hPa Calm   1 mph /  1.6 km/h 80 % 0 in /  0.0 mm
02:12 47.7 °F /  8.7 °C 41.7 °F /  5.4 °C 30.1 in /  1019.2 hPa Calm   1 mph /  1.6 km/h 80 % 0 in /  0.0 mm
02:17 47.3 °F /  8.5 °C 41.7 °F /  5.4 °C 30.1 in /  1019.2 hPa Calm   1 mph /  1.6 km/h 81 % 0 in /  0.0 mm
02:22 47.1 °F /  8.4 °C 41.9 °F /  5.5 °C 30.1 in /  1019.2 hPa Calm   1 mph /  1.6 km/h 82 % 0 in /  0.0 mm
02:27 46.8 °F /  8.2 °C 41.9 °F /  5.5 °C 30.1 in /  1019.2 hPa WSW 1 mph /  1.6 km/h 1 mph /  1.6 km/h 83 % 0 in /  0.0 mm
02:32 46 °F /  7.8 °C 40.5 °F /  4.7 °C 30.1 in /  1019.2 hPa SW 2 mph /  3.2 km/h 2 mph /  3.2 km/h 81 % 0 in /  0.0 mm
02:42 46.8 °F /  8.2 °C 41.9 °F /  5.5 °C 30.1 in /  1019.2 hPa West 2 mph /  3.2 km/h 4 mph /  6.4 km/h 83 % 0 in /  0.0 mm
02:47 47.1 °F /  8.4 °C 41.9 °F /  5.5 °C 30.1 in /  1019.2 hPa WNW 2 mph /  3.2 km/h 4 mph /  6.4 km/h 82 % 0 in /  0.0 mm
02:52 47.5 °F /  8.6 °C 41.9 °F /  5.5 °C 30.1 in /  1019.2 hPa WNW 1 mph /  1.6 km/h 4 mph /  6.4 km/h 81 % 0 in /  0.0 mm
02:57 47.5 °F /  8.6 °C 41.9 °F /  5.5 °C 30.1 in /  1019.2 hPa Calm   4 mph /  6.4 km/h 81 % 0 in /  0.0 mm
03:02 47.1 °F /  8.4 °C 41.5 °F /  5.3 °C 30.1 in /  1019.2 hPa Calm   3 mph /  4.8 km/h 81 % 0 in /  0.0 mm
03:12 47.7 °F /  8.7 °C 41.7 °F /  5.4 °C 30.1 in /  1019.2 hPa Calm   2 mph /  3.2 km/h 80 % 0 in /  0.0 mm
03:17 47.5 °F /  8.6 °C 41.5 °F /  5.3 °C 30.1 in /  1019.2 hPa North 1 mph /  1.6 km/h 2 mph /  3.2 km/h 80 % 0 in /  0.0 mm
03:22 47.5 °F /  8.6 °C 41.9 °F /  5.5 °C 30.1 in /  1019.2 hPa Calm   2 mph /  3.2 km/h 81 % 0 in /  0.0 mm
03:27 47.5 °F /  8.6 °C 41.5 °F /  5.3 °C 30.1 in /  1019.2 hPa Calm   2 mph /  3.2 km/h 80 % 0 in /  0.0 mm
03:37 47.1 °F /  8.4 °C 41.5 °F /  5.3 °C 30.1 in /  1019.2 hPa Calm   1 mph /  1.6 km/h 81 % 0 in /  0.0 mm
03:42 47.1 °F /  8.4 °C 41.9 °F /  5.5 °C 30.1 in /  1019.2 hPa Calm   1 mph /  1.6 km/h 82 % 0 in /  0.0 mm
03:52 47.7 °F /  8.7 °C 42.4 °F /  5.8 °C 30.1 in /  1019.2 hPa Calm   1 mph /  1.6 km/h 82 % 0 in /  0.0 mm
03:57 47.8 °F /  8.8 °C 42.6 °F /  5.9 °C 30.1 in /  1019.2 hPa West 2 mph /  3.2 km/h 2 mph /  3.2 km/h 82 % 0 in /  0.0 mm
04:02 48 °F /  8.9 °C 42.8 °F /  6.0 °C 30.1 in /  1019.2 hPa WNW 2 mph /  3.2 km/h 3 mph /  4.8 km/h 82 % 0 in /  0.0 mm
04:07 48.6 °F /  9.2 °C 43.3 °F /  6.3 °C 30.1 in /  1019.2 hPa WNW 4 mph /  6.4 km/h 7 mph /  11.3 km/h 82 % 0 in /  0.0 mm
04:12 48.7 °F /  9.3 °C 43.5 °F /  6.4 °C 30.1 in /  1019.2 hPa WSW 3 mph /  4.8 km/h 7 mph /  11.3 km/h 82 % 0 in /  0.0 mm
04:17 48.7 °F /  9.3 °C 43.5 °F /  6.4 °C 30.1 in /  1019.2 hPa WNW 4 mph /  6.4 km/h 7 mph /  11.3 km/h 82 % 0 in /  0.0 mm
04:22 48.9 °F /  9.4 °C 44.1 °F /  6.7 °C 30.1 in /  1019.2 hPa WNW 6 mph /  9.7 km/h 7 mph /  11.3 km/h 83 % 0 in /  0.0 mm
04:27 49.5 °F /  9.7 °C 44.2 °F /  6.8 °C 30.1 in /  1019.2 hPa WNW 1 mph /  1.6 km/h 8 mph /  12.9 km/h 82 % 0 in /  0.0 mm
04:32 49.5 °F /  9.7 °C 43.9 °F /  6.6 °C 30.1 in /  1019.2 hPa West 5 mph /  8.0 km/h 9 mph /  14.5 km/h 81 % 0 in /  0.0 mm
04:37 49.3 °F /  9.6 °C 43.7 °F /  6.5 °C 30.1 in /  1018.8 hPa Calm   9 mph /  14.5 km/h 81 % 0 in /  0.0 mm
04:42 49.1 °F /  9.5 °C 43.5 °F /  6.4 °C 30.1 in /  1018.8 hPa Calm   9 mph /  14.5 km/h 81 % 0 in /  0.0 mm
04:47 48.7 °F /  9.3 °C 43.5 °F /  6.4 °C 30.1 in /  1018.8 hPa Calm   6 mph /  9.7 km/h 82 % 0 in /  0.0 mm
04:52 48.6 °F /  9.2 °C 43.3 °F /  6.3 °C 30.1 in /  1018.8 hPa NW 1 mph /  1.6 km/h 6 mph /  9.7 km/h 82 % 0 in /  0.0 mm
04:57 48.2 °F /  9.0 °C 43.3 °F /  6.3 °C 30.1 in /  1018.8 hPa NNW 1 mph /  1.6 km/h 1 mph /  1.6 km/h 83 % 0 in /  0.0 mm
05:02 48.2 °F /  9.0 °C 43.3 °F /  6.3 °C 30.1 in /  1018.8 hPa NW 2 mph /  3.2 km/h 2 mph /  3.2 km/h 83 % 0 in /  0.0 mm
05:12 48 °F /  8.9 °C 43.3 °F /  6.3 °C 30.1 in /  1018.8 hPa Calm   3 mph /  4.8 km/h 84 % 0 in /  0.0 mm
05:17 47.8 °F /  8.8 °C 43 °F /  6.1 °C 30.1 in /  1018.8 hPa Calm   3 mph /  4.8 km/h 83 % 0 in /  0.0 mm
05:22 47.3 °F /  8.5 °C 42.4 °F /  5.8 °C 30.1 in /  1018.8 hPa North 1 mph /  1.6 km/h 3 mph /  4.8 km/h 83 % 0 in /  0.0 mm
05:27 47.1 °F /  8.4 °C 42.8 °F /  6.0 °C 30.1 in /  1019.2 hPa Calm   3 mph /  4.8 km/h 85 % 0 in /  0.0 mm
05:32 46.8 °F /  8.2 °C 42.8 °F /  6.0 °C 30.1 in /  1019.2 hPa WNW 1 mph /  1.6 km/h 2 mph /  3.2 km/h 86 % 0 in /  0.0 mm
05:37 46.8 °F /  8.2 °C 42.8 °F /  6.0 °C 30.1 in /  1019.2 hPa Calm   8 mph /  12.9 km/h 86 % 0 in /  0.0 mm
05:42 46.4 °F /  8.0 °C 41.9 °F /  5.5 °C 30.1 in /  1019.2 hPa WSW 4 mph /  6.4 km/h 8 mph /  12.9 km/h 84 % 0 in /  0.0 mm
05:52 46.2 °F /  7.9 °C 42.3 °F /  5.7 °C 30.1 in /  1019.2 hPa Calm   7 mph /  11.3 km/h 86 % 0 in /  0.0 mm
05:57 46.2 °F /  7.9 °C 42.3 °F /  5.7 °C 30.1 in /  1019.2 hPa Calm   7 mph /  11.3 km/h 86 % 0 in /  0.0 mm
06:02 46 °F /  7.8 °C 42.1 °F /  5.6 °C 30.1 in /  1019.2 hPa South 1 mph /  1.6 km/h 4 mph /  6.4 km/h 86 % 0 in /  0.0 mm
06:12 45.1 °F /  7.3 °C 41.5 °F /  5.3 °C 30.1 in /  1019.2 hPa Calm   3 mph /  4.8 km/h 87 % 0 in /  0.0 mm
06:17 45 °F /  7.2 °C 41.5 °F /  5.3 °C 30.1 in /  1019.2 hPa Calm   3 mph /  4.8 km/h 88 % 0 in /  0.0 mm
06:22 45.1 °F /  7.3 °C 41.7 °F /  5.4 °C 30.1 in /  1019.2 hPa Calm   2 mph /  3.2 km/h 88 % 0 in /  0.0 mm
06:32 45.3 °F /  7.4 °C 42.3 °F /  5.7 °C 30.1 in /  1019.2 hPa Calm   1 mph /  1.6 km/h 89 % 0 in /  0.0 mm
06:37 45.5 °F /  7.5 °C 42.4 °F /  5.8 °C 30.1 in /  1019.2 hPa Calm   1 mph /  1.6 km/h 89 % 0 in /  0.0 mm
06:42 45.5 °F /  7.5 °C 42.4 °F /  5.8 °C 30.1 in /  1019.2 hPa Calm     89 % 0 in /  0.0 mm
06:47 45.1 °F /  7.3 °C 41.7 °F /  5.4 °C 30.1 in /  1019.2 hPa Calm     88 % 0 in /  0.0 mm
06:52 45.1 °F /  7.3 °C 42.1 °F /  5.6 °C 30.1 in /  1019.2 hPa Calm     89 % 0 in /  0.0 mm
06:57 45.1 °F /  7.3 °C 42.1 °F /  5.6 °C 30.1 in /  1019.5 hPa Calm     89 % 0 in /  0.0 mm
07:02 45.1 °F /  7.3 °C 42.1 °F /  5.6 °C 30.1 in /  1019.5 hPa Calm     89 % 0 in /  0.0 mm
07:07 45.1 °F /  7.3 °C 42.4 °F /  5.8 °C 30.1 in /  1019.5 hPa Calm     90 % 0 in /  0.0 mm
07:12 45.1 °F /  7.3 °C 42.4 °F /  5.8 °C 30.1 in /  1019.5 hPa Calm     90 % 0 in /  0.0 mm
07:17 45.3 °F /  7.4 °C 42.6 °F /  5.9 °C 30.1 in /  1019.9 hPa Calm     90 % 0 in /  0.0 mm
07:22 45.3 °F /  7.4 °C 42.6 °F /  5.9 °C 30.1 in /  1019.9 hPa Calm     90 % 0 in /  0.0 mm
07:27 45.5 °F /  7.5 °C 42.8 °F /  6.0 °C 30.1 in /  1019.9 hPa Calm     90 % 0 in /  0.0 mm
07:32 45.9 °F /  7.7 °C 43.2 °F /  6.2 °C 30.1 in /  1019.9 hPa West 1 mph /  1.6 km/h 2 mph /  3.2 km/h 90 % 0 in /  0.0 mm
07:37 46 °F /  7.8 °C 43.3 °F /  6.3 °C 30.1 in /  1019.9 hPa WNW 1 mph /  1.6 km/h 3 mph /  4.8 km/h 90 % 0 in /  0.0 mm
07:42 46.2 °F /  7.9 °C 43.5 °F /  6.4 °C 30.1 in /  1019.9 hPa Calm   4 mph /  6.4 km/h 90 % 0 in /  0.0 mm
07:52 46.4 °F /  8.0 °C 43.7 °F /  6.5 °C 30.1 in /  1020.2 hPa WNW 3 mph /  4.8 km/h 4 mph /  6.4 km/h 90 % 0 in /  0.0 mm
07:57 46.6 °F /  8.1 °C 43.5 °F /  6.4 °C 30.1 in /  1020.2 hPa NW 2 mph /  3.2 km/h 4 mph /  6.4 km/h 89 % 0 in /  0.0 mm
08:02 46.6 °F /  8.1 °C 43.5 °F /  6.4 °C 30.1 in /  1020.2 hPa WNW 1 mph /  1.6 km/h 8 mph /  12.9 km/h 89 % 0 in /  0.0 mm
08:07 46.6 °F /  8.1 °C 43.5 °F /  6.4 °C 30.1 in /  1020.2 hPa West 2 mph /  3.2 km/h 8 mph /  12.9 km/h 89 % 0 in /  0.0 mm
08:12 46.8 °F /  8.2 °C 43.7 °F /  6.5 °C 30.1 in /  1020.2 hPa WNW 1 mph /  1.6 km/h 8 mph /  12.9 km/h 89 % 0 in /  0.0 mm
08:17 46.8 °F /  8.2 °C 43.7 °F /  6.5 °C 30.1 in /  1020.2 hPa WSW 1 mph /  1.6 km/h 7 mph /  11.3 km/h 89 % 0 in /  0.0 mm
08:22 46.8 °F /  8.2 °C 43.7 °F /  6.5 °C 30.1 in /  1020.5 hPa WNW 2 mph /  3.2 km/h 4 mph /  6.4 km/h 89 % 0 in /  0.0 mm
08:27 46.9 °F /  8.3 °C 43.5 °F /  6.4 °C 30.1 in /  1020.5 hPa West 2 mph /  3.2 km/h 3 mph /  4.8 km/h 88 % 0 in /  0.0 mm
08:32 46.9 °F /  8.3 °C 43.5 °F /  6.4 °C 30.1 in /  1020.5 hPa West 3 mph /  4.8 km/h 3 mph /  4.8 km/h 88 % 0 in /  0.0 mm
08:37 46.9 °F /  8.3 °C 43.5 °F /  6.4 °C 30.1 in /  1020.5 hPa West 1 mph /  1.6 km/h 5 mph /  8.0 km/h 88 % 0 in /  0.0 mm
08:42 46.9 °F /  8.3 °C 43.5 °F /  6.4 °C 30.1 in /  1020.5 hPa WNW 2 mph /  3.2 km/h 6 mph /  9.7 km/h 88 % 0 in /  0.0 mm
08:47 46.9 °F /  8.3 °C 43.5 °F /  6.4 °C 30.1 in /  1020.5 hPa WNW 1 mph /  1.6 km/h 6 mph /  9.7 km/h 88 % 0 in /  0.0 mm
08:52 46.9 °F /  8.3 °C 43.5 °F /  6.4 °C 30.1 in /  1020.5 hPa WNW 1 mph /  1.6 km/h 6 mph /  9.7 km/h 88 % 0 in /  0.0 mm
09:02 46.9 °F /  8.3 °C 43.5 °F /  6.4 °C 30.1 in /  1020.5 hPa WNW 1 mph /  1.6 km/h 7 mph /  11.3 km/h 88 % 0 in /  0.0 mm
09:12 47.1 °F /  8.4 °C 43.7 °F /  6.5 °C 30.1 in /  1020.5 hPa SW 2 mph /  3.2 km/h 7 mph /  11.3 km/h 88 % 0 in /  0.0 mm
09:17 47.3 °F /  8.5 °C 43.9 °F /  6.6 °C 30.1 in /  1020.5 hPa West 2 mph /  3.2 km/h 6 mph /  9.7 km/h 88 % 0 in /  0.0 mm
09:22 47.5 °F /  8.6 °C 44.1 °F /  6.7 °C 30.2 in /  1020.9 hPa NW 2 mph /  3.2 km/h 4 mph /  6.4 km/h 88 % 0 in /  0.0 mm
09:27 47.7 °F /  8.7 °C 44.1 °F /  6.7 °C 30.2 in /  1020.9 hPa North 1 mph /  1.6 km/h 3 mph /  4.8 km/h 87 % 0 in /  0.0 mm
09:32 47.7 °F /  8.7 °C 44.1 °F /  6.7 °C 30.2 in /  1020.9 hPa WNW 4 mph /  6.4 km/h 4 mph /  6.4 km/h 87 % 0 in /  0.0 mm
09:37 47.8 °F /  8.8 °C 43.9 °F /  6.6 °C 30.2 in /  1020.9 hPa Calm   3 mph /  4.8 km/h 86 % 0 in /  0.0 mm
09:42 48 °F /  8.9 °C 44.1 °F /  6.7 °C 30.2 in /  1020.9 hPa NNW 3 mph /  4.8 km/h 5 mph /  8.0 km/h 86 % 0 in /  0.0 mm
09:47 48.2 °F /  9.0 °C 44.2 °F /  6.8 °C 30.2 in /  1020.9 hPa WNW 2 mph /  3.2 km/h 5 mph /  8.0 km/h 86 % 0 in /  0.0 mm
09:52 48.4 °F /  9.1 °C 44.1 °F /  6.7 °C 30.2 in /  1020.9 hPa Calm   5 mph /  8.0 km/h 85 % 0 in /  0.0 mm
09:57 48.6 °F /  9.2 °C 44.2 °F /  6.8 °C 30.2 in /  1020.9 hPa WNW 2 mph /  3.2 km/h 6 mph /  9.7 km/h 85 % 0 in /  0.0 mm
10:02 48.9 °F /  9.4 °C 44.6 °F /  7.0 °C 30.2 in /  1020.9 hPa WNW 4 mph /  6.4 km/h 6 mph /  9.7 km/h 85 % 0 in /  0.0 mm
10:12 49.6 °F /  9.8 °C 45 °F /  7.2 °C 30.2 in /  1021.2 hPa Calm   4 mph /  6.4 km/h 84 % 0 in /  0.0 mm
10:17 49.8 °F /  9.9 °C 44.6 °F /  7.0 °C 30.2 in /  1021.2 hPa NNW 1 mph /  1.6 km/h 5 mph /  8.0 km/h 82 % 0 in /  0.0 mm
10:22 50.2 °F /  10.1 °C 45 °F /  7.2 °C 30.2 in /  1021.2 hPa NW 3 mph /  4.8 km/h 4 mph /  6.4 km/h 82 % 0 in /  0.0 mm
10:32 50 °F /  10.0 °C 44.8 °F /  7.1 °C 30.2 in /  1021.6 hPa NNW 1 mph /  1.6 km/h 7 mph /  11.3 km/h 82 % 0 in /  0.0 mm
10:37 50.4 °F /  10.2 °C 45.1 °F /  7.3 °C 30.2 in /  1021.6 hPa Calm   7 mph /  11.3 km/h 82 % 0 in /  0.0 mm
10:42 50.5 °F /  10.3 °C 45.3 °F /  7.4 °C 30.2 in /  1021.6 hPa WNW 3 mph /  4.8 km/h 7 mph /  11.3 km/h 82 % 0 in /  0.0 mm
10:52 50.7 °F /  10.4 °C 45.1 °F /  7.3 °C 30.2 in /  1021.6 hPa WNW 4 mph /  6.4 km/h 7 mph /  11.3 km/h 81 % 0 in /  0.0 mm
10:57 50.7 °F /  10.4 °C 44.8 °F /  7.1 °C 30.2 in /  1021.6 hPa WNW 3 mph /  4.8 km/h 8 mph /  12.9 km/h 80 % 0 in /  0.0 mm
11:02 50.7 °F /  10.4 °C 44.8 °F /  7.1 °C 30.2 in /  1021.6 hPa NNW 2 mph /  3.2 km/h 9 mph /  14.5 km/h 80 % 0 in /  0.0 mm
11:12 51.3 °F /  10.7 °C 45.3 °F /  7.4 °C 30.2 in /  1021.6 hPa West 5 mph /  8.0 km/h 9 mph /  14.5 km/h 80 % 0 in /  0.0 mm
11:17 51.4 °F /  10.8 °C 45.5 °F /  7.5 °C 30.2 in /  1021.9 hPa North 2 mph /  3.2 km/h 8 mph /  12.9 km/h 80 % 0 in /  0.0 mm
11:22 52.3 °F /  11.3 °C 46.4 °F /  8.0 °C 30.2 in /  1021.9 hPa WNW 2 mph /  3.2 km/h 8 mph /  12.9 km/h 80 % 0 in /  0.0 mm
11:32 52.3 °F /  11.3 °C 46 °F /  7.8 °C 30.2 in /  1021.9 hPa NW 4 mph /  6.4 km/h 8 mph /  12.9 km/h 79 % 0 in /  0.0 mm
11:42 52.5 °F /  11.4 °C 46.6 °F /  8.1 °C 30.2 in /  1021.9 hPa WSW 3 mph /  4.8 km/h 6 mph /  9.7 km/h 80 % 0 in /  0.0 mm
11:47 52.3 °F /  11.3 °C 46 °F /  7.8 °C 30.2 in /  1021.9 hPa West 1 mph /  1.6 km/h 6 mph /  9.7 km/h 79 % 0 in /  0.0 mm
11:57 52.3 °F /  11.3 °C 46 °F /  7.8 °C 30.2 in /  1021.9 hPa WNW 3 mph /  4.8 km/h 7 mph /  11.3 km/h 79 % 0 in /  0.0 mm
12:02 52.3 °F /  11.3 °C 46 °F /  7.8 °C 30.2 in /  1021.9 hPa NW 2 mph /  3.2 km/h 7 mph /  11.3 km/h 79 % 0 in /  0.0 mm
12:12 52.5 °F /  11.4 °C 45.9 °F /  7.7 °C 30.2 in /  1021.9 hPa WNW 2 mph /  3.2 km/h 6 mph /  9.7 km/h 78 % 0 in /  0.0 mm
12:17 52.5 °F /  11.4 °C 45.9 °F /  7.7 °C 30.2 in /  1021.9 hPa WNW 2 mph /  3.2 km/h 6 mph /  9.7 km/h 78 % 0 in /  0.0 mm
12:22 52.5 °F /  11.4 °C 45.5 °F /  7.5 °C 30.2 in /  1021.9 hPa WNW 3 mph /  4.8 km/h 6 mph /  9.7 km/h 77 % 0 in /  0.0 mm
12:32 52.9 °F /  11.6 °C 45.5 °F /  7.5 °C 30.2 in /  1021.9 hPa WNW 2 mph /  3.2 km/h 6 mph /  9.7 km/h 76 % 0 in /  0.0 mm
12:37 53.1 °F /  11.7 °C 45.3 °F /  7.4 °C 30.2 in /  1021.9 hPa WNW 2 mph /  3.2 km/h 6 mph /  9.7 km/h 75 % 0 in /  0.0 mm
12:42 53.4 °F /  11.9 °C 45.3 °F /  7.4 °C 30.2 in /  1021.9 hPa WNW 5 mph /  8.0 km/h 8 mph /  12.9 km/h 74 % 0 in /  0.0 mm
12:52 53.8 °F /  12.1 °C 45.3 °F /  7.4 °C 30.2 in /  1021.9 hPa West 2 mph /  3.2 km/h 8 mph /  12.9 km/h 73 % 0 in /  0.0 mm
12:57 54.1 °F /  12.3 °C 45.3 °F /  7.4 °C 30.2 in /  1021.9 hPa West 3 mph /  4.8 km/h 8 mph /  12.9 km/h 72 % 0 in /  0.0 mm
13:02 54.1 °F /  12.3 °C 45.7 °F /  7.6 °C 30.2 in /  1021.9 hPa West 1 mph /  1.6 km/h 8 mph /  12.9 km/h 73 % 0 in /  0.0 mm
13:07 54.5 °F /  12.5 °C 45.7 °F /  7.6 °C 30.2 in /  1021.6 hPa West 4 mph /  6.4 km/h 8 mph /  12.9 km/h 72 % 0 in /  0.0 mm
13:12 54.3 °F /  12.4 °C 45.1 °F /  7.3 °C 30.2 in /  1021.9 hPa West 3 mph /  4.8 km/h 8 mph /  12.9 km/h 71 % 0 in /  0.0 mm
13:17 54.3 °F /  12.4 °C 45.1 °F /  7.3 °C 30.2 in /  1021.6 hPa WNW 1 mph /  1.6 km/h 8 mph /  12.9 km/h 71 % 0 in /  0.0 mm
13:22 54.5 °F /  12.5 °C 45.3 °F /  7.4 °C 30.2 in /  1021.9 hPa WSW 2 mph /  3.2 km/h 8 mph /  12.9 km/h 71 % 0 in /  0.0 mm
13:27 54.7 °F /  12.6 °C 45.5 °F /  7.5 °C 30.2 in /  1021.6 hPa WSW 6 mph /  9.7 km/h 7 mph /  11.3 km/h 71 % 0 in /  0.0 mm
13:32 55 °F /  12.8 °C 45.1 °F /  7.3 °C 30.2 in /  1021.9 hPa West 2 mph /  3.2 km/h 6 mph /  9.7 km/h 69 % 0 in /  0.0 mm
13:37 55.2 °F /  12.9 °C 45.1 °F /  7.3 °C 30.2 in /  1021.9 hPa SW 2 mph /  3.2 km/h 6 mph /  9.7 km/h 69 % 0 in /  0.0 mm
13:42 55.2 °F /  12.9 °C 45.1 °F /  7.3 °C 30.2 in /  1021.9 hPa Calm   6 mph /  9.7 km/h 69 % 0 in /  0.0 mm
13:47 55.4 °F /  13.0 °C 45.3 °F /  7.4 °C 30.2 in /  1021.6 hPa WNW 2 mph /  3.2 km/h 5 mph /  8.0 km/h 69 % 0 in /  0.0 mm
13:52 55.8 °F /  13.2 °C 45.7 °F /  7.6 °C 30.2 in /  1021.9 hPa West 5 mph /  8.0 km/h 5 mph /  8.0 km/h 69 % 0 in /  0.0 mm
13:57 55.9 °F /  13.3 °C 45.9 °F /  7.7 °C 30.2 in /  1021.9 hPa West 4 mph /  6.4 km/h 9 mph /  14.5 km/h 69 % 0 in /  0.0 mm
14:02 55.9 °F /  13.3 °C 44.8 °F /  7.1 °C 30.2 in /  1021.9 hPa NW 2 mph /  3.2 km/h 11 mph /  17.7 km/h 66 % 0 in /  0.0 mm
14:12 55.8 °F /  13.2 °C 45 °F /  7.2 °C 30.2 in /  1021.6 hPa WSW 6 mph /  9.7 km/h 11 mph /  17.7 km/h 67 % 0 in /  0.0 mm
14:17 55.9 °F /  13.3 °C 44.8 °F /  7.1 °C 30.2 in /  1021.6 hPa West 5 mph /  8.0 km/h 9 mph /  14.5 km/h 66 % 0 in /  0.0 mm
14:22 55.9 °F /  13.3 °C 44.8 °F /  7.1 °C 30.2 in /  1021.6 hPa WSW 5 mph /  8.0 km/h 9 mph /  14.5 km/h 66 % 0 in /  0.0 mm
14:27 55.9 °F /  13.3 °C 45.1 °F /  7.3 °C 30.2 in /  1021.6 hPa NNW 3 mph /  4.8 km/h 9 mph /  14.5 km/h 67 % 0 in /  0.0 mm
14:32 56.1 °F /  13.4 °C 45.7 °F /  7.6 °C 30.2 in /  1021.6 hPa WSW 2 mph /  3.2 km/h 9 mph /  14.5 km/h 68 % 0 in /  0.0 mm
14:37 56.3 °F /  13.5 °C 45.5 °F /  7.5 °C 30.2 in /  1021.6 hPa WSW 4 mph /  6.4 km/h 8 mph /  12.9 km/h 67 % 0 in /  0.0 mm
14:42 56.7 °F /  13.7 °C 45.5 °F /  7.5 °C 30.2 in /  1021.6 hPa SW 3 mph /  4.8 km/h 9 mph /  14.5 km/h 66 % 0 in /  0.0 mm
14:47 56.7 °F /  13.7 °C 45 °F /  7.2 °C 30.2 in /  1021.6 hPa West 2 mph /  3.2 km/h 10 mph /  16.1 km/h 65 % 0 in /  0.0 mm
14:57 56.5 °F /  13.6 °C 45.3 °F /  7.4 °C 30.2 in /  1021.6 hPa WSW 6 mph /  9.7 km/h 10 mph /  16.1 km/h 66 % 0 in /  0.0 mm
15:02 56.1 °F /  13.4 °C 45.3 °F /  7.4 °C 30.2 in /  1021.9 hPa WSW 7 mph /  11.3 km/h 11 mph /  17.7 km/h 67 % 0 in /  0.0 mm
15:12 56.5 °F /  13.6 °C 44.4 °F /  6.9 °C 30.2 in /  1021.9 hPa West 2 mph /  3.2 km/h 11 mph /  17.7 km/h 64 % 0 in /  0.0 mm
15:17 56.5 °F /  13.6 °C 45.3 °F /  7.4 °C 30.2 in /  1021.9 hPa WNW 1 mph /  1.6 km/h 11 mph /  17.7 km/h 66 % 0 in /  0.0 mm
15:22 56.5 °F /  13.6 °C 45.7 °F /  7.6 °C 30.2 in /  1021.6 hPa West 1 mph /  1.6 km/h 8 mph /  12.9 km/h 67 % 0 in /  0.0 mm
15:32 56.1 °F /  13.4 °C 45 °F /  7.2 °C 30.2 in /  1021.6 hPa West 5 mph /  8.0 km/h 13 mph /  20.9 km/h 66 % 0 in /  0.0 mm
15:42 56.1 °F /  13.4 °C 45.7 °F /  7.6 °C 30.2 in /  1021.9 hPa West 1 mph /  1.6 km/h 14 mph /  22.5 km/h 68 % 0 in /  0.0 mm
15:47 56.5 °F /  13.6 °C 45.7 °F /  7.6 °C 30.2 in /  1021.9 hPa NW 6 mph /  9.7 km/h 14 mph /  22.5 km/h 67 % 0 in /  0.0 mm
15:52 56.3 °F /  13.5 °C 45.5 °F /  7.5 °C 30.2 in /  1021.9 hPa WSW 5 mph /  8.0 km/h 14 mph /  22.5 km/h 67 % 0 in /  0.0 mm
15:57 56.1 °F /  13.4 °C 45.3 °F /  7.4 °C 30.2 in /  1021.9 hPa West 5 mph /  8.0 km/h 14 mph /  22.5 km/h 67 % 0 in /  0.0 mm
16:02 56.1 °F /  13.4 °C 45.3 °F /  7.4 °C 30.2 in /  1021.9 hPa West 6 mph /  9.7 km/h 14 mph /  22.5 km/h 67 % 0 in /  0.0 mm
16:17 55.6 °F /  13.1 °C 45.5 °F /  7.5 °C 30.2 in /  1021.9 hPa WNW 4 mph /  6.4 km/h 16 mph /  25.7 km/h 69 % 0 in /  0.0 mm
16:22 55.6 °F /  13.1 °C 45.5 °F /  7.5 °C 30.2 in /  1021.9 hPa WNW 3 mph /  4.8 km/h 14 mph /  22.5 km/h 69 % 0 in /  0.0 mm
16:32 55.8 °F /  13.2 °C 45.3 °F /  7.4 °C 30.2 in /  1021.9 hPa West 4 mph /  6.4 km/h 12 mph /  19.3 km/h 68 % 0 in /  0.0 mm
16:37 55.9 °F /  13.3 °C 45.9 °F /  7.7 °C 30.2 in /  1021.9 hPa WNW 7 mph /  11.3 km/h 11 mph /  17.7 km/h 69 % 0 in /  0.0 mm
16:42 55.9 °F /  13.3 °C 46.2 °F /  7.9 °C 30.2 in /  1021.9 hPa WNW 8 mph /  12.9 km/h 11 mph /  17.7 km/h 70 % 0 in /  0.0 mm
16:47 56.1 °F /  13.4 °C 46.4 °F /  8.0 °C 30.2 in /  1021.9 hPa WNW 10 mph /  16.1 km/h 11 mph /  17.7 km/h 70 % 0 in /  0.0 mm
16:52 55.9 °F /  13.3 °C 46.2 °F /  7.9 °C 30.2 in /  1021.9 hPa WSW 6 mph /  9.7 km/h 11 mph /  17.7 km/h 70 % 0 in /  0.0 mm
16:57 55.9 °F /  13.3 °C 46.2 °F /  7.9 °C 30.2 in /  1021.9 hPa WSW 6 mph /  9.7 km/h 11 mph /  17.7 km/h 70 % 0 in /  0.0 mm
17:02 55.9 °F /  13.3 °C 46.2 °F /  7.9 °C 30.2 in /  1021.9 hPa West 7 mph /  11.3 km/h 11 mph /  17.7 km/h 70 % 0 in /  0.0 mm
17:07 56.1 °F /  13.4 °C 46 °F /  7.8 °C 30.2 in /  1021.9 hPa NW 8 mph /  12.9 km/h 11 mph /  17.7 km/h 69 % 0 in /  0.0 mm
17:12 56.1 °F /  13.4 °C 46 °F /  7.8 °C 30.2 in /  1021.6 hPa West 3 mph /  4.8 km/h 11 mph /  17.7 km/h 69 % 0 in /  0.0 mm
17:17 56.1 °F /  13.4 °C 46.4 °F /  8.0 °C 30.2 in /  1021.9 hPa West 4 mph /  6.4 km/h 9 mph /  14.5 km/h 70 % 0 in /  0.0 mm
17:22 55.9 °F /  13.3 °C 45.9 °F /  7.7 °C 30.2 in /  1021.6 hPa West 6 mph /  9.7 km/h 9 mph /  14.5 km/h 69 % 0 in /  0.0 mm
17:32 55.8 °F /  13.2 °C 46 °F /  7.8 °C 30.2 in /  1021.6 hPa WSW 3 mph /  4.8 km/h 10 mph /  16.1 km/h 70 % 0 in /  0.0 mm
17:42 55.6 °F /  13.1 °C 46.4 °F /  8.0 °C 30.2 in /  1021.9 hPa WNW 9 mph /  14.5 km/h 13 mph /  20.9 km/h 71 % 0 in /  0.0 mm
17:47 55.2 °F /  12.9 °C 46.4 °F /  8.0 °C 30.2 in /  1021.6 hPa WSW 4 mph /  6.4 km/h 13 mph /  20.9 km/h 72 % 0 in /  0.0 mm
17:52 55.4 °F /  13.0 °C 46.6 °F /  8.1 °C 30.2 in /  1021.9 hPa WNW 4 mph /  6.4 km/h 13 mph /  20.9 km/h 72 % 0 in /  0.0 mm
17:57 55.4 °F /  13.0 °C 46.6 °F /  8.1 °C 30.2 in /  1021.9 hPa West 3 mph /  4.8 km/h 12 mph /  19.3 km/h 72 % 0 in /  0.0 mm
18:02 55.6 °F /  13.1 °C 46.8 °F /  8.2 °C 30.2 in /  1021.9 hPa West 3 mph /  4.8 km/h 12 mph /  19.3 km/h 72 % 0 in /  0.0 mm
18:07 55.4 °F /  13.0 °C 46.2 °F /  7.9 °C 30.2 in /  1021.9 hPa WNW 6 mph /  9.7 km/h 12 mph /  19.3 km/h 71 % 0 in /  0.0 mm
18:12 55.2 °F /  12.9 °C 46 °F /  7.8 °C 30.2 in /  1021.9 hPa NW 10 mph /  16.1 km/h 12 mph /  19.3 km/h 71 % 0 in /  0.0 mm
18:17 55 °F /  12.8 °C 46.2 °F /  7.9 °C 30.2 in /  1021.9 hPa West 2 mph /  3.2 km/h 12 mph /  19.3 km/h 72 % 0 in /  0.0 mm
18:22 55 °F /  12.8 °C 46.6 °F /  8.1 °C 30.2 in /  1021.9 hPa West 5 mph /  8.0 km/h 12 mph /  19.3 km/h 73 % 0 in /  0.0 mm
18:27 54.9 °F /  12.7 °C 46 °F /  7.8 °C 30.2 in /  1021.9 hPa WSW 7 mph /  11.3 km/h 11 mph /  17.7 km/h 72 % 0 in /  0.0 mm
18:32 54.7 °F /  12.6 °C 46.2 °F /  7.9 °C 30.2 in /  1021.9 hPa WNW 5 mph /  8.0 km/h 10 mph /  16.1 km/h 73 % 0 in /  0.0 mm
18:37 54.5 °F /  12.5 °C 46 °F /  7.8 °C 30.2 in /  1021.9 hPa NW 7 mph /  11.3 km/h 10 mph /  16.1 km/h 73 % 0 in /  0.0 mm
18:42 54.3 °F /  12.4 °C 46.2 °F /  7.9 °C 30.2 in /  1021.9 hPa WNW 5 mph /  8.0 km/h 13 mph /  20.9 km/h 74 % 0 in /  0.0 mm
18:52 54.1 °F /  12.3 °C 46.4 °F /  8.0 °C 30.2 in /  1021.9 hPa West 2 mph /  3.2 km/h 13 mph /  20.9 km/h 75 % 0 in /  0.0 mm
18:57 54.1 °F /  12.3 °C 46.4 °F /  8.0 °C 30.2 in /  1021.9 hPa West 2 mph /  3.2 km/h 8 mph /  12.9 km/h 75 % 0 in /  0.0 mm
19:02 54.1 °F /  12.3 °C 46.4 °F /  8.0 °C 30.2 in /  1021.9 hPa West 6 mph /  9.7 km/h 8 mph /  12.9 km/h 75 % 0 in /  0.0 mm
19:07 54.1 °F /  12.3 °C 46.4 °F /  8.0 °C 30.2 in /  1022.2 hPa WNW 3 mph /  4.8 km/h 8 mph /  12.9 km/h 75 % 0 in /  0.0 mm
19:12 54.1 °F /  12.3 °C 46.4 °F /  8.0 °C 30.2 in /  1022.2 hPa West 2 mph /  3.2 km/h 8 mph /  12.9 km/h 75 % 0 in /  0.0 mm
19:17 54.1 °F /  12.3 °C 46.8 °F /  8.2 °C 30.2 in /  1022.2 hPa West 3 mph /  4.8 km/h 6 mph /  9.7 km/h 76 % 0 in /  0.0 mm
19:22 54.1 °F /  12.3 °C 46.8 °F /  8.2 °C 30.2 in /  1022.2 hPa WNW 3 mph /  4.8 km/h 8 mph /  12.9 km/h 76 % 0 in /  0.0 mm
19:32 54 °F /  12.2 °C 46.6 °F /  8.1 °C 30.2 in /  1022.2 hPa West 3 mph /  4.8 km/h 8 mph /  12.9 km/h 76 % 0 in /  0.0 mm
19:37 54 °F /  12.2 °C 46.6 °F /  8.1 °C 30.2 in /  1022.2 hPa WNW 6 mph /  9.7 km/h 8 mph /  12.9 km/h 76 % 0 in /  0.0 mm
19:42 54 °F /  12.2 °C 46.6 °F /  8.1 °C 30.2 in /  1022.2 hPa West 2 mph /  3.2 km/h 8 mph /  12.9 km/h 76 % 0 in /  0.0 mm
19:47 54 °F /  12.2 °C 46.9 °F /  8.3 °C 30.2 in /  1022.2 hPa West 2 mph /  3.2 km/h 8 mph /  12.9 km/h 77 % 0 in /  0.0 mm
19:52 54 °F /  12.2 °C 46.6 °F /  8.1 °C 30.2 in /  1022.2 hPa WSW 3 mph /  4.8 km/h 8 mph /  12.9 km/h 76 % 0 in /  0.0 mm
19:57 54 °F /  12.2 °C 46.6 °F /  8.1 °C 30.2 in /  1022.2 hPa West 2 mph /  3.2 km/h 9 mph /  14.5 km/h 76 % 0 in /  0.0 mm
20:02 54 °F /  12.2 °C 46.6 °F /  8.1 °C 30.2 in /  1022.2 hPa WSW 4 mph /  6.4 km/h 10 mph /  16.1 km/h 76 % 0 in /  0.0 mm
20:07 54 °F /  12.2 °C 46.6 °F /  8.1 °C 30.2 in /  1022.2 hPa WNW 7 mph /  11.3 km/h 10 mph /  16.1 km/h 76 % 0 in /  0.0 mm
20:12 53.8 °F /  12.1 °C 46.4 °F /  8.0 °C 30.2 in /  1022.2 hPa WSW 4 mph /  6.4 km/h 10 mph /  16.1 km/h 76 % 0 in /  0.0 mm
20:17 53.8 °F /  12.1 °C 46.4 °F /  8.0 °C 30.2 in /  1022.2 hPa WSW 7 mph /  11.3 km/h 9 mph /  14.5 km/h 76 % 0 in /  0.0 mm
20:22 53.6 °F /  12.0 °C 46.6 °F /  8.1 °C 30.2 in /  1022.2 hPa WSW 4 mph /  6.4 km/h 9 mph /  14.5 km/h 77 % 0 in /  0.0 mm
20:27 53.4 °F /  11.9 °C 46.4 °F /  8.0 °C 30.2 in /  1022.2 hPa West 3 mph /  4.8 km/h 9 mph /  14.5 km/h 77 % 0 in /  0.0 mm
20:32 53.4 °F /  11.9 °C 46.4 °F /  8.0 °C 30.2 in /  1022.2 hPa West 4 mph /  6.4 km/h 8 mph /  12.9 km/h 77 % 0 in /  0.0 mm
20:37 53.4 °F /  11.9 °C 46.4 °F /  8.0 °C 30.2 in /  1022.6 hPa WSW 1 mph /  1.6 km/h 7 mph /  11.3 km/h 77 % 0 in /  0.0 mm
20:47 53.2 °F /  11.8 °C 46.6 °F /  8.1 °C 30.2 in /  1022.2 hPa WSW 2 mph /  3.2 km/h 5 mph /  8.0 km/h 78 % 0 in /  0.0 mm
20:52 53.1 °F /  11.7 °C 46.4 °F /  8.0 °C 30.2 in /  1022.2 hPa WSW 4 mph /  6.4 km/h 6 mph /  9.7 km/h 78 % 0 in /  0.0 mm
20:57 53.1 °F /  11.7 °C 46.4 °F /  8.0 °C 30.2 in /  1022.6 hPa West 1 mph /  1.6 km/h 6 mph /  9.7 km/h 78 % 0 in /  0.0 mm
21:07 52.9 °F /  11.6 °C 46.2 °F /  7.9 °C 30.2 in /  1022.9 hPa West 1 mph /  1.6 km/h 7 mph /  11.3 km/h 78 % 0 in /  0.0 mm
21:12 52.9 °F /  11.6 °C 46.6 °F /  8.1 °C 30.2 in /  1022.9 hPa WNW 2 mph /  3.2 km/h 7 mph /  11.3 km/h 79 % 0 in /  0.0 mm
21:17 52.5 °F /  11.4 °C 46.2 °F /  7.9 °C 30.2 in /  1022.9 hPa West 2 mph /  3.2 km/h 4 mph /  6.4 km/h 79 % 0 in /  0.0 mm
21:22 52.5 °F /  11.4 °C 46.2 °F /  7.9 °C 30.2 in /  1022.9 hPa West 1 mph /  1.6 km/h 4 mph /  6.4 km/h 79 % 0 in /  0.0 mm
21:27 52.5 °F /  11.4 °C 46.2 °F /  7.9 °C 30.2 in /  1022.9 hPa Calm   4 mph /  6.4 km/h 79 % 0 in /  0.0 mm
21:37 52.3 °F /  11.3 °C 46.4 °F /  8.0 °C 30.2 in /  1022.9 hPa Calm   3 mph /  4.8 km/h 80 % 0 in /  0.0 mm
21:42 52.3 °F /  11.3 °C 46.4 °F /  8.0 °C 30.2 in /  1023.2 hPa Calm   3 mph /  4.8 km/h 80 % 0 in /  0.0 mm
21:47 52.2 °F /  11.2 °C 46.2 °F /  7.9 °C 30.2 in /  1023.2 hPa Calm   3 mph /  4.8 km/h 80 % 0 in /  0.0 mm
21:52 52 °F /  11.1 °C 46.4 °F /  8.0 °C 30.2 in /  1023.2 hPa Calm   2 mph /  3.2 km/h 81 % 0 in /  0.0 mm
21:57 52 °F /  11.1 °C 46.4 °F /  8.0 °C 30.2 in /  1023.2 hPa Calm   2 mph /  3.2 km/h 81 % 0 in /  0.0 mm
22:02 51.8 °F /  11.0 °C 46.2 °F /  7.9 °C 30.2 in /  1023.2 hPa WNW 2 mph /  3.2 km/h 2 mph /  3.2 km/h 81 % 0 in /  0.0 mm
22:07 51.8 °F /  11.0 °C 46.2 °F /  7.9 °C 30.2 in /  1023.2 hPa West 2 mph /  3.2 km/h 3 mph /  4.8 km/h 81 % 0 in /  0.0 mm
22:17 52 °F /  11.1 °C 46.4 °F /  8.0 °C 30.2 in /  1023.2 hPa West 1 mph /  1.6 km/h 4 mph /  6.4 km/h 81 % 0 in /  0.0 mm
22:27 52 °F /  11.1 °C 46.4 °F /  8.0 °C 30.2 in /  1023.2 hPa West 3 mph /  4.8 km/h 4 mph /  6.4 km/h 81 % 0 in /  0.0 mm
22:32 52.2 °F /  11.2 °C 46.6 °F /  8.1 °C 30.2 in /  1023.2 hPa WSW 2 mph /  3.2 km/h 7 mph /  11.3 km/h 81 % 0 in /  0.0 mm
22:37 52.2 °F /  11.2 °C 46.6 °F /  8.1 °C 30.2 in /  1023.2 hPa WNW 1 mph /  1.6 km/h 7 mph /  11.3 km/h 81 % 0 in /  0.0 mm
22:42 52 °F /  11.1 °C 46.4 °F /  8.0 °C 30.2 in /  1023.2 hPa WSW 4 mph /  6.4 km/h 7 mph /  11.3 km/h 81 % 0 in /  0.0 mm
22:47 52.2 °F /  11.2 °C 46.6 °F /  8.1 °C 30.2 in /  1023.2 hPa West 2 mph /  3.2 km/h 7 mph /  11.3 km/h 81 % 0 in /  0.0 mm
22:52 52 °F /  11.1 °C 46.4 °F /  8.0 °C 30.2 in /  1023.2 hPa WSW 1 mph /  1.6 km/h 7 mph /  11.3 km/h 81 % 0 in /  0.0 mm
22:57 52 °F /  11.1 °C 46.4 °F /  8.0 °C 30.2 in /  1023.2 hPa West 2 mph /  3.2 km/h 7 mph /  11.3 km/h 81 % 0 in /  0.0 mm
23:02 52 °F /  11.1 °C 46.4 °F /  8.0 °C 30.2 in /  1023.2 hPa WSW 3 mph /  4.8 km/h 6 mph /  9.7 km/h 81 % 0 in /  0.0 mm
23:07 52.2 °F /  11.2 °C 46.6 °F /  8.1 °C 30.2 in /  1023.2 hPa West 4 mph /  6.4 km/h 6 mph /  9.7 km/h 81 % 0 in /  0.0 mm
23:12 52 °F /  11.1 °C 46.4 °F /  8.0 °C 30.2 in /  1023.2 hPa West 2 mph /  3.2 km/h 6 mph /  9.7 km/h 81 % 0 in /  0.0 mm
23:17 52 °F /  11.1 °C 46.4 °F /  8.0 °C 30.2 in /  1023.2 hPa West 2 mph /  3.2 km/h 7 mph /  11.3 km/h 81 % 0 in /  0.0 mm
23:27 52 °F /  11.1 °C 46.4 °F /  8.0 °C 30.2 in /  1023.2 hPa SW 6 mph /  9.7 km/h 8 mph /  12.9 km/h 81 % 0 in /  0.0 mm
23:32 52 °F /  11.1 °C 46.4 °F /  8.0 °C 30.2 in /  1023.2 hPa West 7 mph /  11.3 km/h 11 mph /  17.7 km/h 81 % 0 in /  0.0 mm
23:37 52 °F /  11.1 °C 46.4 °F /  8.0 °C 30.2 in /  1023.2 hPa West 3 mph /  4.8 km/h 11 mph /  17.7 km/h 81 % 0 in /  0.0 mm
23:42 52 °F /  11.1 °C 46.4 °F /  8.0 °C 30.2 in /  1023.6 hPa WNW 3 mph /  4.8 km/h 11 mph /  17.7 km/h 81 % 0 in /  0.0 mm
23:47 52 °F /  11.1 °C 46.4 °F /  8.0 °C 30.2 in /  1023.6 hPa WSW 2 mph /  3.2 km/h 10 mph /  16.1 km/h 81 % 0 in /  0.0 mm
23:52 52 °F /  11.1 °C 46.4 °F /  8.0 °C 30.2 in /  1023.6 hPa West 3 mph /  4.8 km/h 10 mph /  16.1 km/h 81 % 0 in /  0.0 mm
23:57 51.8 °F /  11.0 °C 46.2 °F /  7.9 °C 30.2 in /  1023.6 hPa WSW 7 mph /  11.3 km/h 10 mph /  16.1 km/h 81 % 0 in /  0.0 mm
Meteo18
Compliments of Weather Underground - 4 mb

Script developed by  Jim McMurry - jmcmurry@mwt.net Adapted for the template by  Wim van der Kuil - Leuven-Template.eu

You find our weather info also at:

European Weather Network

Weather Underground

Equipment we use:

Weather-station
Davis Vue

Weather-program
Meteohub

Weather-server
Raspberry PI 2 B+

Provider
1 and 1

Davis Vue

Meteohub

Raspberry PI 2 B+

1 and 1